createdAt,value
2019-02-21T00:01:38.804Z,64.48
2019-02-21T00:04:10.467Z,64.60
2019-02-21T00:06:42.122Z,64.77
2019-02-21T00:09:13.864Z,64.70
2019-02-21T00:11:45.755Z,64.79
2019-02-21T00:14:17.661Z,65.10
2019-02-21T00:16:49.569Z,65.36
2019-02-21T00:19:22.352Z,65.66
2019-02-21T00:21:54.142Z,65.50
2019-02-21T00:24:25.806Z,65.70
2019-02-21T00:26:57.393Z,65.65
2019-02-21T00:29:28.977Z,65.51
2019-02-21T00:32:01.534Z,65.26
2019-02-21T00:34:33.198Z,65.28
2019-02-21T00:37:05.754Z,65.20
2019-02-21T00:39:37.338Z,65.30
2019-02-21T00:42:09.730Z,65.27
2019-02-21T00:44:41.871Z,65.38
2019-02-21T00:47:13.812Z,65.25
2019-02-21T00:49:45.473Z,65.29
2019-02-21T00:52:17.052Z,65.16
2019-02-21T00:54:48.762Z,65.10
2019-02-21T00:57:20.386Z,65.18
2019-02-21T00:59:51.997Z,64.96
2019-02-21T01:02:23.587Z,64.92
2019-02-21T01:04:55.247Z,64.88
2019-02-21T01:07:26.846Z,64.97
2019-02-21T01:09:59.528Z,65.16
2019-02-21T01:12:31.170Z,65.28
2019-02-21T01:15:02.850Z,65.23
2019-02-21T01:17:34.493Z,65.22
2019-02-21T01:20:06.413Z,65.20
2019-02-21T01:22:38.088Z,65.14
2019-02-21T01:25:10.069Z,65.45
2019-02-21T01:27:41.711Z,65.14
2019-02-21T01:30:13.590Z,65.26
2019-02-21T01:32:45.186Z,65.03
2019-02-21T01:35:16.863Z,65.01
2019-02-21T01:37:48.541Z,65.09
2019-02-21T01:40:20.169Z,65.04
2019-02-21T01:42:51.832Z,64.96
2019-02-21T01:45:23.437Z,65.23
2019-02-21T01:47:55.084Z,64.92
2019-02-21T01:50:26.665Z,65.05
2019-02-21T01:52:58.404Z,64.92
2019-02-21T01:55:30.062Z,64.92
2019-02-21T01:58:01.748Z,64.74
2019-02-21T02:00:33.523Z,64.72
2019-02-21T02:03:05.211Z,64.65
2019-02-21T02:05:36.817Z,64.82
2019-02-21T02:08:08.470Z,64.73
2019-02-21T02:10:40.069Z,64.59
2019-02-21T02:13:23.722Z,64.68
2019-02-21T02:15:45.296Z,64.82
2019-02-21T02:18:16.963Z,64.69
2019-02-21T02:20:48.572Z,64.97
2019-02-21T02:23:20.159Z,65.17
2019-02-21T02:25:51.821Z,65.21
2019-02-21T02:28:24.470Z,65.15
2019-02-21T02:30:56.063Z,65.05
2019-02-21T02:33:27.714Z,65.12
2019-02-21T02:35:59.315Z,65.42
2019-02-21T02:38:30.899Z,65.42
2019-02-21T02:41:02.597Z,65.27
2019-02-21T02:43:34.255Z,65.41
2019-02-21T02:46:05.929Z,65.43
2019-02-21T02:48:37.597Z,65.43
2019-02-21T02:51:09.276Z,65.57
2019-02-21T02:53:40.868Z,65.74
2019-02-21T02:56:12.466Z,65.51
2019-02-21T02:58:45.605Z,65.52
2019-02-21T03:01:18.594Z,65.52
2019-02-21T03:03:50.253Z,65.45
2019-02-21T03:06:21.935Z,65.53
2019-02-21T03:08:53.612Z,65.39
2019-02-21T03:11:25.227Z,65.26
2019-02-21T03:13:56.820Z,65.13
2019-02-21T03:16:29.479Z,65.32
2019-02-21T03:19:01.072Z,65.33
2019-02-21T03:21:32.717Z,65.43
2019-02-21T03:24:04.295Z,65.28
2019-02-21T03:26:35.883Z,65.34
2019-02-21T03:29:07.473Z,65.27
2019-02-21T03:31:53.466Z,65.39
2019-02-21T03:34:12.380Z,65.48
2019-02-21T03:36:43.970Z,65.56
2019-02-21T03:39:15.824Z,65.62
2019-02-21T03:41:47.723Z,65.58
2019-02-21T03:44:19.289Z,65.61
2019-02-21T03:46:50.895Z,65.55
2019-02-21T03:49:22.482Z,65.71
2019-02-21T03:51:54.090Z,65.76
2019-02-21T03:54:25.811Z,65.94
2019-02-21T03:56:57.419Z,65.79
2019-02-21T03:59:29.072Z,65.79
2019-02-21T04:02:05.245Z,65.81
2019-02-21T04:04:33.980Z,65.93
2019-02-21T04:07:05.589Z,65.91
2019-02-21T04:09:37.242Z,65.73
2019-02-21T04:12:08.841Z,65.45
2019-02-21T04:14:40.563Z,65.46
2019-02-21T04:17:12.156Z,65.22
2019-02-21T04:19:43.905Z,65.05
2019-02-21T04:22:15.516Z,65.41
2019-02-21T04:24:47.101Z,65.54
2019-02-21T04:27:18.767Z,65.39
2019-02-21T04:29:50.339Z,65.56
2019-02-21T04:32:21.927Z,65.50
2019-02-21T04:34:53.565Z,65.52
2019-02-21T04:37:25.167Z,65.35
2019-02-21T04:39:56.805Z,65.44
2019-02-21T04:42:29.413Z,65.17
2019-02-21T04:45:00.994Z,65.36
2019-02-21T04:47:33.783Z,65.37
2019-02-21T04:50:05.471Z,65.31
2019-02-21T04:52:37.157Z,65.61
2019-02-21T04:55:08.753Z,65.67
2019-02-21T04:57:40.355Z,65.89
2019-02-21T05:00:12.574Z,66.43
2019-02-21T05:02:44.245Z,67.03
2019-02-21T05:05:15.883Z,66.98
2019-02-21T05:07:47.793Z,67.05
2019-02-21T05:10:19.644Z,67.11
2019-02-21T05:12:51.256Z,67.05
2019-02-21T05:15:22.915Z,67.41
2019-02-21T05:17:54.523Z,67.31
2019-02-21T05:20:26.118Z,67.52
2019-02-21T05:22:57.708Z,67.21
2019-02-21T05:25:29.290Z,67.53
2019-02-21T05:28:17.980Z,67.73
2019-02-21T05:30:51.499Z,67.87
2019-02-21T05:33:43.944Z,68.66
2019-02-21T05:36:37.356Z,68.35
2019-02-21T05:39:36.574Z,68.91
2019-02-21T05:42:25.569Z,68.88
2019-02-21T05:45:27.808Z,68.99
2019-02-21T05:48:12.780Z,69.12
2019-02-21T05:50:52.010Z,69.12
2019-02-21T05:53:36.725Z,69.73
2019-02-21T05:56:30.085Z,69.66
2019-02-21T05:59:14.210Z,70.40
2019-02-21T06:02:13.650Z,70.35
2019-02-21T06:05:01.503Z,70.83
2019-02-21T06:07:57.990Z,70.90
2019-02-21T06:10:48.544Z,70.77
2019-02-21T06:13:31.038Z,70.84
2019-02-21T06:16:08.424Z,70.56
2019-02-21T06:18:58.912Z,70.69
2019-02-21T06:21:50.991Z,70.71
2019-02-21T06:24:33.379Z,71.44
2019-02-21T06:27:12.094Z,71.65
2019-02-21T06:29:56.866Z,72.16
2019-02-21T06:32:28.534Z,72.35
2019-02-21T06:35:02.542Z,72.48
2019-02-21T06:37:33.488Z,72.89
2019-02-21T06:40:05.119Z,72.88
2019-02-21T06:42:36.794Z,72.81
2019-02-21T06:45:08.412Z,73.32
2019-02-21T06:47:41.062Z,73.14
2019-02-21T06:50:14.586Z,73.62
2019-02-21T06:52:46.488Z,73.79
2019-02-21T06:55:20.512Z,73.34
2019-02-21T06:57:51.442Z,73.85
2019-02-21T07:00:23.066Z,73.53
2019-02-21T07:02:55.239Z,74.09
2019-02-21T07:05:27.050Z,73.97
2019-02-21T07:07:59.692Z,73.75
2019-02-21T07:10:31.301Z,73.56
2019-02-21T07:13:03.057Z,73.55
2019-02-21T07:15:34.787Z,73.29
2019-02-21T07:18:08.059Z,73.06
2019-02-21T07:20:39.917Z,73.10
2019-02-21T07:23:11.622Z,73.54
2019-02-21T07:25:47.652Z,73.23
2019-02-21T07:28:19.241Z,73.43
2019-02-21T07:30:51.550Z,73.49
2019-02-21T07:33:28.306Z,73.48
2019-02-21T07:35:56.608Z,73.35
2019-02-21T07:38:28.183Z,73.92
2019-02-21T07:40:59.851Z,73.96
2019-02-21T07:43:31.612Z,74.06
2019-02-21T07:46:03.255Z,73.90
2019-02-21T07:48:36.522Z,73.80
2019-02-21T07:51:09.194Z,74.20
2019-02-21T07:53:42.458Z,74.50
2019-02-21T07:56:14.818Z,73.88
2019-02-21T07:58:46.621Z,73.94
2019-02-21T08:01:19.283Z,73.41
2019-02-21T08:03:50.939Z,74.04
2019-02-21T08:06:22.530Z,74.19
2019-02-21T08:08:54.210Z,73.88
2019-02-21T08:11:26.058Z,74.03
2019-02-21T08:14:00.361Z,74.32
2019-02-21T08:16:32.282Z,74.77
2019-02-21T08:19:03.952Z,74.41
2019-02-21T08:21:37.975Z,74.66
2019-02-21T08:24:12.176Z,75.25
2019-02-21T08:26:43.802Z,75.66
2019-02-21T08:29:15.563Z,75.25
2019-02-21T08:31:47.662Z,75.27
2019-02-21T08:34:23.828Z,75.93
2019-02-21T08:36:55.508Z,75.38
2019-02-21T08:39:27.177Z,75.70
2019-02-21T08:41:58.855Z,75.57
2019-02-21T08:44:30.588Z,76.18
2019-02-21T08:47:02.228Z,76.50
2019-02-21T08:49:33.956Z,76.76
2019-02-21T08:52:05.561Z,76.70
2019-02-21T08:54:39.801Z,77.06
2019-02-21T08:57:13.394Z,77.40
2019-02-21T08:59:46.040Z,77.86
2019-02-21T09:02:18.102Z,78.67
2019-02-21T09:04:49.767Z,79.35
2019-02-21T09:07:21.351Z,80.42
2019-02-21T09:09:52.976Z,79.76
2019-02-21T09:12:24.678Z,80.73
2019-02-21T09:14:56.736Z,80.80
2019-02-21T09:17:28.685Z,80.25
2019-02-21T09:20:00.388Z,81.36
2019-02-21T09:22:32.091Z,80.97
2019-02-21T09:25:03.887Z,81.09
2019-02-21T09:27:35.502Z,81.46
2019-02-21T09:30:17.667Z,81.14
2019-02-21T09:32:49.854Z,82.07
2019-02-21T09:35:22.147Z,81.61
2019-02-21T09:37:53.810Z,81.35
2019-02-21T09:40:25.440Z,82.14
2019-02-21T09:42:57.154Z,82.08
2019-02-21T09:45:28.861Z,81.18
2019-02-21T09:48:01.191Z,81.53
2019-02-21T09:50:33.926Z,81.07
2019-02-21T09:53:05.633Z,80.30
2019-02-21T09:55:37.274Z,81.25
2019-02-21T09:58:08.976Z,81.27
2019-02-21T10:00:40.673Z,80.39
2019-02-21T10:03:12.560Z,80.94
2019-02-21T10:05:44.297Z,80.94
2019-02-21T10:08:18.317Z,80.83
2019-02-21T10:10:50.009Z,81.08
2019-02-21T10:13:21.624Z,81.51
2019-02-21T10:15:53.327Z,80.91
2019-02-21T10:18:25.000Z,81.18
2019-02-21T10:20:56.769Z,81.42
2019-02-21T10:23:28.642Z,82.05
2019-02-21T10:26:00.318Z,80.66
2019-02-21T10:28:32.654Z,81.43
2019-02-21T10:31:04.639Z,80.35
2019-02-21T10:33:46.229Z,80.29
2019-02-21T10:36:12.310Z,80.77
2019-02-21T10:38:44.868Z,81.48
2019-02-21T10:41:17.189Z,80.51
2019-02-21T10:43:49.879Z,80.63
2019-02-21T10:46:21.657Z,80.34
2019-02-21T10:48:54.930Z,80.81
2019-02-21T10:51:27.247Z,80.66
2019-02-21T10:53:59.254Z,81.19
2019-02-21T10:56:31.344Z,79.79
2019-02-21T10:59:02.979Z,79.67
2019-02-21T11:01:34.977Z,79.71
2019-02-21T11:04:06.770Z,80.21
2019-02-21T11:06:38.676Z,79.79
2019-02-21T11:09:14.702Z,79.12
2019-02-21T11:11:46.503Z,79.44
2019-02-21T11:14:18.173Z,80.11
2019-02-21T11:16:49.862Z,80.07
2019-02-21T11:19:21.956Z,80.44
2019-02-21T11:21:55.443Z,80.28
2019-02-21T11:24:27.133Z,80.68
2019-02-21T11:26:58.788Z,81.91
2019-02-21T11:29:30.386Z,81.94
2019-02-21T11:32:01.995Z,81.69
2019-02-21T11:34:34.147Z,81.36
2019-02-21T11:37:06.002Z,81.47
2019-02-21T11:39:39.504Z,81.46
2019-02-21T11:42:12.763Z,81.81
2019-02-21T11:44:44.631Z,82.36
2019-02-21T11:47:16.246Z,83.06
2019-02-21T11:49:49.122Z,81.89
2019-02-21T11:52:20.751Z,81.75
2019-02-21T11:54:52.417Z,81.75
2019-02-21T11:57:24.143Z,82.27
2019-02-21T11:59:55.730Z,82.18
2019-02-21T12:02:27.343Z,82.95
2019-02-21T12:04:58.999Z,82.65
2019-02-21T12:07:30.625Z,82.53
2019-02-21T12:10:02.244Z,82.83
2019-02-21T12:12:34.018Z,82.61
2019-02-21T12:15:07.791Z,82.60
2019-02-21T12:17:42.330Z,82.76
2019-02-21T12:20:13.566Z,82.56
2019-02-21T12:22:45.759Z,82.16
2019-02-21T12:25:17.814Z,82.23
2019-02-21T12:27:49.483Z,82.20
2019-02-21T12:30:21.108Z,82.38
2019-02-21T12:32:52.787Z,82.75
2019-02-21T12:35:29.538Z,82.41
2019-02-21T12:37:57.728Z,82.85
2019-02-21T12:40:29.336Z,82.82
2019-02-21T12:43:00.997Z,81.85
2019-02-21T12:45:32.666Z,82.57
2019-02-21T12:48:04.404Z,82.34
2019-02-21T12:50:43.861Z,81.77
2019-02-21T12:53:09.915Z,83.21
2019-02-21T12:55:41.749Z,82.49
2019-02-21T12:58:13.327Z,82.31
2019-02-21T13:00:45.026Z,82.15
2019-02-21T13:03:16.705Z,82.50
2019-02-21T13:05:48.295Z,82.56
2019-02-21T13:08:19.956Z,82.93
2019-02-21T13:10:52.033Z,82.75
2019-02-21T13:13:23.768Z,82.38
2019-02-21T13:15:55.361Z,82.69
2019-02-21T13:18:27.019Z,81.81
2019-02-21T13:20:58.694Z,81.64
2019-02-21T13:23:30.271Z,81.77
2019-02-21T13:26:02.061Z,82.14
2019-02-21T13:28:34.109Z,81.72
2019-02-21T13:31:05.917Z,80.95
2019-02-21T13:33:37.604Z,81.19
2019-02-21T13:36:09.204Z,81.22
2019-02-21T13:38:40.862Z,81.72
2019-02-21T13:41:12.443Z,81.11
2019-02-21T13:43:44.027Z,81.24
2019-02-21T13:46:15.863Z,80.84
2019-02-21T13:48:47.731Z,80.77
2019-02-21T13:51:19.391Z,80.33
2019-02-21T13:53:52.355Z,80.33
2019-02-21T13:56:24.163Z,80.38
2019-02-21T13:58:55.772Z,80.27
2019-02-21T14:01:27.562Z,80.06
2019-02-21T14:03:59.723Z,80.28
2019-02-21T14:06:31.333Z,80.42
2019-02-21T14:09:03.037Z,79.88
2019-02-21T14:11:36.209Z,79.59
2019-02-21T14:14:07.819Z,79.95
2019-02-21T14:16:46.724Z,80.29
2019-02-21T14:19:13.071Z,79.82
2019-02-21T14:21:44.934Z,80.20
2019-02-21T14:24:16.533Z,79.83
2019-02-21T14:26:48.120Z,80.11
2019-02-21T14:29:19.800Z,80.23
2019-02-21T14:31:51.452Z,80.30
2019-02-21T14:34:23.152Z,80.19
2019-02-21T14:36:54.820Z,80.56
2019-02-21T14:39:26.504Z,80.35
2019-02-21T14:41:58.093Z,80.49
2019-02-21T14:44:29.715Z,80.53
2019-02-21T14:47:01.492Z,80.54
2019-02-21T14:49:33.132Z,80.64
2019-02-21T14:52:04.742Z,80.58
2019-02-21T14:54:38.115Z,80.19
2019-02-21T14:57:10.139Z,80.16
2019-02-21T14:59:44.664Z,80.47
2019-02-21T15:02:16.388Z,80.45
2019-02-21T15:04:48.351Z,80.65
2019-02-21T15:07:19.944Z,80.41
2019-02-21T15:09:51.873Z,80.57
2019-02-21T15:12:23.579Z,80.52
2019-02-21T15:14:55.330Z,80.21
2019-02-21T15:17:26.919Z,80.00
2019-02-21T15:19:59.507Z,80.32
2019-02-21T15:22:31.156Z,79.69
2019-02-21T15:25:02.831Z,80.08
2019-02-21T15:27:34.491Z,79.88
2019-02-21T15:30:06.641Z,80.07
2019-02-21T15:32:38.907Z,79.61
2019-02-21T15:35:10.543Z,79.70
2019-02-21T15:37:44.895Z,79.75
2019-02-21T15:40:15.992Z,79.52
2019-02-21T15:42:47.874Z,79.45
2019-02-21T15:45:23.478Z,79.30
2019-02-21T15:47:54.413Z,79.20
2019-02-21T15:50:26.071Z,79.17
2019-02-21T15:52:58.336Z,79.27
2019-02-21T15:55:32.062Z,79.20
2019-02-21T15:58:04.654Z,79.08
2019-02-21T16:00:36.428Z,79.11
2019-02-21T16:03:08.413Z,79.64
2019-02-21T16:05:40.170Z,79.91
2019-02-21T16:08:12.982Z,79.67
2019-02-21T16:10:45.103Z,79.86
2019-02-21T16:13:17.394Z,79.90
2019-02-21T16:15:50.784Z,80.08
2019-02-21T16:18:22.444Z,80.07
2019-02-21T16:20:54.052Z,80.09
2019-02-21T16:23:25.622Z,80.03
2019-02-21T16:25:57.796Z,80.12
2019-02-21T16:28:29.396Z,80.25
2019-02-21T16:31:01.070Z,80.45
2019-02-21T16:33:32.720Z,80.13
2019-02-21T16:36:04.309Z,80.02
2019-02-21T16:38:35.883Z,79.89
2019-02-21T16:41:07.478Z,79.91
2019-02-21T16:43:39.131Z,80.42
2019-02-21T16:46:10.793Z,80.02
2019-02-21T16:48:42.467Z,80.06
2019-02-21T16:51:14.135Z,79.71
2019-02-21T16:53:45.734Z,79.92
2019-02-21T16:56:17.488Z,79.67
2019-02-21T16:58:49.353Z,79.63
2019-02-21T17:01:21.236Z,79.58
2019-02-21T17:03:52.880Z,79.32
2019-02-21T17:06:24.557Z,79.49
2019-02-21T17:08:56.207Z,80.16
2019-02-21T17:11:27.799Z,80.72
2019-02-21T17:13:59.431Z,80.85
2019-02-21T17:16:31.126Z,80.61
2019-02-21T17:19:02.735Z,81.18
2019-02-21T17:21:34.412Z,81.08
2019-02-21T17:24:06.010Z,81.10
2019-02-21T17:26:37.709Z,81.42
2019-02-21T17:29:09.387Z,81.38
2019-02-21T17:31:41.084Z,81.27
2019-02-21T17:34:12.683Z,81.21
2019-02-21T17:36:44.723Z,81.35
2019-02-21T17:39:16.482Z,81.10
2019-02-21T17:41:48.404Z,81.21
2019-02-21T17:44:20.065Z,81.24
2019-02-21T17:46:51.734Z,81.02
2019-02-21T17:49:23.627Z,80.92
2019-02-21T17:51:55.419Z,80.74
2019-02-21T17:54:27.861Z,80.87
2019-02-21T17:56:59.505Z,80.92
2019-02-21T17:59:31.180Z,80.96
2019-02-21T18:02:02.834Z,80.75
2019-02-21T18:04:34.514Z,80.80
2019-02-21T18:07:06.199Z,80.93
2019-02-21T18:09:37.898Z,81.05
2019-02-21T18:12:09.558Z,81.11
2019-02-21T18:14:41.155Z,81.03
2019-02-21T18:17:12.765Z,80.95
2019-02-21T18:19:44.545Z,81.13
2019-02-21T18:22:16.496Z,81.19
2019-02-21T18:24:48.384Z,81.21
2019-02-21T18:27:20.208Z,81.40
2019-02-21T18:29:51.797Z,81.57
2019-02-21T18:32:24.260Z,81.69
2019-02-21T18:34:55.917Z,81.95
2019-02-21T18:37:27.528Z,81.84
2019-02-21T18:39:59.138Z,81.88
2019-02-21T18:42:30.810Z,81.77
2019-02-21T18:45:02.475Z,82.11
2019-02-21T18:47:34.139Z,82.19
2019-02-21T18:50:06.265Z,82.40
2019-02-21T18:52:37.949Z,82.61
2019-02-21T18:55:09.576Z,82.83
2019-02-21T18:57:41.449Z,82.97
2019-02-21T19:00:14.352Z,82.75
2019-02-21T19:02:47.686Z,82.72
2019-02-21T19:05:20.358Z,82.73
2019-02-21T19:08:03.345Z,82.76
2019-02-21T19:10:25.371Z,82.68
2019-02-21T19:12:57.050Z,82.88
2019-02-21T19:15:29.478Z,83.07
2019-02-21T19:18:01.260Z,83.15
2019-02-21T19:20:32.941Z,82.80
2019-02-21T19:23:05.906Z,82.98
2019-02-21T19:25:37.624Z,82.81
2019-02-21T19:28:09.378Z,82.75
2019-02-21T19:30:44.637Z,82.65
2019-02-21T19:33:19.685Z,82.38
2019-02-21T19:35:52.201Z,82.25
2019-02-21T19:38:25.390Z,82.31
2019-02-21T19:40:57.665Z,82.25
2019-02-21T19:43:29.315Z,82.26
2019-02-21T19:46:01.155Z,82.07
2019-02-21T19:48:33.137Z,81.99
2019-02-21T19:51:05.110Z,82.00
2019-02-21T19:53:37.153Z,81.98
2019-02-21T19:56:11.133Z,81.91
2019-02-21T19:58:47.341Z,82.06
2019-02-21T20:01:19.234Z,82.05
2019-02-21T20:03:51.057Z,81.96
2019-02-21T20:06:25.674Z,81.81
2019-02-21T20:08:57.655Z,81.94
2019-02-21T20:11:29.461Z,81.64
2019-02-21T20:14:01.206Z,81.52
2019-02-21T20:16:32.897Z,81.59
2019-02-21T20:19:04.578Z,81.58
2019-02-21T20:21:37.178Z,81.55
2019-02-21T20:24:09.351Z,81.41
2019-02-21T20:26:42.824Z,81.38
2019-02-21T20:29:15.044Z,81.41
2019-02-21T20:31:46.931Z,81.45
2019-02-21T20:34:19.034Z,81.30
2019-02-21T20:36:51.546Z,81.45
2019-02-21T20:39:23.637Z,81.57
2019-02-21T20:41:55.619Z,81.80
2019-02-21T20:44:27.721Z,82.13
2019-02-21T20:46:59.547Z,82.09
2019-02-21T20:49:32.396Z,82.43
2019-02-21T20:52:04.651Z,82.35
2019-02-21T20:54:36.498Z,82.40
2019-02-21T20:57:11.282Z,82.47
2019-02-21T20:59:43.424Z,82.44
2019-02-21T21:02:15.728Z,83.07
2019-02-21T21:04:48.579Z,83.28
2019-02-21T21:07:25.152Z,83.46
2019-02-21T21:09:54.430Z,83.51
2019-02-21T21:12:26.776Z,83.67
2019-02-21T21:14:58.561Z,83.56
2019-02-21T21:17:30.360Z,83.52
2019-02-21T21:20:03.675Z,83.61
2019-02-21T21:22:36.582Z,83.64
2019-02-21T21:25:10.462Z,83.79
2019-02-21T21:27:42.416Z,83.65
2019-02-21T21:30:14.817Z,83.64
2019-02-21T21:32:46.918Z,83.58
2019-02-21T21:35:18.774Z,83.44
2019-02-21T21:37:50.775Z,83.45
2019-02-21T21:40:22.588Z,83.29
2019-02-21T21:42:54.729Z,83.53
2019-02-21T21:45:27.169Z,83.46
2019-02-21T21:47:58.995Z,83.50
2019-02-21T21:50:30.669Z,83.50
2019-02-21T21:53:02.445Z,83.42
2019-02-21T21:55:34.171Z,83.35
2019-02-21T21:58:05.952Z,83.42
2019-02-21T22:00:39.331Z,83.33
2019-02-21T22:03:13.323Z,83.37
2019-02-21T22:05:46.033Z,83.14
2019-02-21T22:08:17.662Z,83.02
2019-02-21T22:10:49.436Z,82.92
2019-02-21T22:13:21.131Z,82.86
2019-02-21T22:15:57.715Z,82.92
2019-02-21T22:18:29.420Z,82.66
2019-02-21T22:21:01.031Z,82.68
2019-02-21T22:23:32.698Z,82.72
2019-02-21T22:26:04.424Z,82.76
2019-02-21T22:28:36.009Z,82.76
2019-02-21T22:31:07.603Z,82.74
2019-02-21T22:33:39.259Z,82.79
2019-02-21T22:36:10.866Z,82.92
2019-02-21T22:38:42.570Z,82.86
2019-02-21T22:41:14.192Z,82.69
2019-02-21T22:43:45.778Z,82.76
2019-02-21T22:46:17.573Z,82.54
2019-02-21T22:48:49.580Z,82.37
2019-02-21T22:51:21.276Z,82.48
2019-02-21T22:53:52.910Z,82.22
2019-02-21T22:56:24.537Z,82.35
2019-02-21T22:58:56.199Z,82.21
2019-02-21T23:01:34.112Z,82.12
2019-02-21T23:05:00.790Z,82.09
2019-02-21T23:07:40.924Z,81.83
2019-02-21T23:10:12.525Z,81.49
2019-02-21T23:12:44.272Z,81.74
2019-02-21T23:15:17.528Z,81.90
2019-02-21T23:17:49.436Z,81.56
2019-02-21T23:20:21.011Z,81.69
2019-02-21T23:22:53.711Z,81.56
2019-02-21T23:25:25.439Z,81.27
2019-02-21T23:27:57.085Z,81.09
2019-02-21T23:30:28.733Z,81.00
2019-02-21T23:33:00.397Z,81.13
2019-02-21T23:35:32.051Z,81.03
2019-02-21T23:38:03.669Z,81.39
2019-02-21T23:40:37.038Z,81.57
2019-02-21T23:43:09.766Z,81.56
2019-02-21T23:45:41.489Z,81.66
2019-02-21T23:48:13.086Z,81.88
2019-02-21T23:50:44.690Z,81.95
2019-02-21T23:53:16.768Z,82.13
2019-02-21T23:55:48.482Z,82.18
2019-02-21T23:58:20.309Z,82.28
